createdAt,value
2017-10-03T00:01:54.059Z,7.90
2017-10-03T00:04:25.791Z,8.90
2017-10-03T00:06:56.778Z,7.73
2017-10-03T00:09:28.157Z,8.20
2017-10-03T00:11:59.110Z,7.90
2017-10-03T00:14:31.487Z,5.80
2017-10-03T00:17:02.481Z,5.33
2017-10-03T00:19:33.459Z,5.37
2017-10-03T00:22:04.446Z,4.10
2017-10-03T00:24:35.424Z,4.97
2017-10-03T00:27:06.755Z,4.43
2017-10-03T00:29:37.714Z,4.60
2017-10-03T00:32:08.718Z,5.07
2017-10-03T00:34:39.657Z,4.77
2017-10-03T00:37:10.635Z,5.07
2017-10-03T00:39:42.038Z,5.30
2017-10-03T00:42:13.011Z,5.90
2017-10-03T00:44:44.381Z,5.67
2017-10-03T00:47:15.338Z,5.00
2017-10-03T00:49:46.319Z,5.33
2017-10-03T00:52:17.304Z,5.43
2017-10-03T00:54:48.295Z,4.90
2017-10-03T00:57:19.770Z,4.53
2017-10-03T00:59:50.789Z,4.23
2017-10-03T01:02:21.739Z,5.00
2017-10-03T01:04:52.718Z,4.63
2017-10-03T01:07:23.961Z,5.07
2017-10-03T01:09:55.299Z,3.90
2017-10-03T01:12:26.262Z,4.53
2017-10-03T01:14:58.554Z,4.40
2017-10-03T01:17:29.498Z,3.93
2017-10-03T01:20:00.487Z,3.67
2017-10-03T01:22:31.449Z,3.93
2017-10-03T01:25:03.206Z,3.30
2017-10-03T01:27:35.475Z,3.40
2017-10-03T01:30:07.316Z,2.97
2017-10-03T01:32:38.269Z,3.60
2017-10-03T01:35:09.241Z,2.27
2017-10-03T01:37:50.794Z,3.20
2017-10-03T01:40:22.234Z,3.40
2017-10-03T01:42:53.206Z,2.80
2017-10-03T01:45:25.232Z,3.67
2017-10-03T01:47:56.162Z,2.30
2017-10-03T01:50:27.177Z,2.80
2017-10-03T01:52:58.172Z,2.10
2017-10-03T01:55:29.916Z,2.00
2017-10-03T01:58:01.517Z,1.77
2017-10-03T02:00:32.826Z,2.33
2017-10-03T02:03:03.795Z,2.27
2017-10-03T02:05:35.125Z,2.10
2017-10-03T02:08:06.096Z,1.87
2017-10-03T02:10:37.194Z,1.90
2017-10-03T02:13:08.179Z,2.20
2017-10-03T02:15:39.330Z,1.90
2017-10-03T02:18:10.326Z,2.07
2017-10-03T02:20:42.367Z,2.10
2017-10-03T02:23:13.510Z,1.70
2017-10-03T02:25:44.591Z,2.57
2017-10-03T02:28:17.554Z,2.37
2017-10-03T02:30:48.538Z,1.83
2017-10-03T02:33:19.521Z,2.67
2017-10-03T02:35:50.527Z,3.40
2017-10-03T02:38:21.506Z,2.97
2017-10-03T02:40:52.822Z,3.43
2017-10-03T02:43:23.834Z,4.10
2017-10-03T02:45:54.915Z,4.10
2017-10-03T02:48:25.921Z,4.07
2017-10-03T02:50:56.937Z,4.03
2017-10-03T02:53:28.714Z,4.23
2017-10-03T02:55:59.671Z,3.70
2017-10-03T02:58:31.886Z,3.67
2017-10-03T03:01:03.648Z,4.13
2017-10-03T03:03:35.589Z,2.90
2017-10-03T03:06:06.632Z,3.10
2017-10-03T03:08:37.622Z,2.93
2017-10-03T03:11:08.904Z,3.27
2017-10-03T03:13:39.874Z,2.90
2017-10-03T03:16:10.842Z,3.50
2017-10-03T03:18:42.871Z,2.63
2017-10-03T03:21:13.915Z,2.20
2017-10-03T03:23:45.235Z,1.80
2017-10-03T03:26:16.204Z,2.03
2017-10-03T03:28:47.613Z,1.50
2017-10-03T03:31:18.580Z,1.23
2017-10-03T03:33:49.549Z,1.40
2017-10-03T03:36:21.291Z,1.53
2017-10-03T03:38:52.259Z,1.23
2017-10-03T03:41:23.564Z,1.37
2017-10-03T03:43:54.518Z,1.13
2017-10-03T03:46:26.243Z,1.60
2017-10-03T03:48:57.247Z,1.40
2017-10-03T03:51:28.214Z,1.63
2017-10-03T03:53:59.178Z,1.20
2017-10-03T03:56:30.158Z,1.60
2017-10-03T03:59:02.464Z,1.70
2017-10-03T04:01:33.490Z,1.80
2017-10-03T04:04:04.471Z,2.50
2017-10-03T04:06:35.450Z,2.30
2017-10-03T04:09:06.755Z,2.10
2017-10-03T04:11:38.263Z,2.30
2017-10-03T04:14:09.254Z,1.90
2017-10-03T04:16:40.225Z,1.67
2017-10-03T04:19:11.773Z,2.23
2017-10-03T04:21:43.581Z,2.17
2017-10-03T04:24:16.707Z,2.80
2017-10-03T04:26:48.311Z,2.10
2017-10-03T04:29:20.277Z,2.70
2017-10-03T04:31:51.960Z,1.43
2017-10-03T04:34:23.515Z,2.20
2017-10-03T04:36:55.076Z,1.57
2017-10-03T04:39:26.709Z,1.60
2017-10-03T04:41:58.478Z,1.60
2017-10-03T04:44:30.086Z,1.20
2017-10-03T04:47:01.697Z,1.97
2017-10-03T04:49:33.283Z,2.00
2017-10-03T04:52:04.847Z,2.03
2017-10-03T04:54:37.557Z,1.40
2017-10-03T04:57:09.195Z,1.10
2017-10-03T04:59:41.136Z,0.80
2017-10-03T05:02:13.526Z,0.90
2017-10-03T05:04:45.121Z,1.10
2017-10-03T05:07:16.647Z,1.13
2017-10-03T05:09:48.192Z,1.17
2017-10-03T05:12:19.927Z,1.10
2017-10-03T05:14:51.522Z,1.13
2017-10-03T05:17:24.553Z,1.13
2017-10-03T05:19:57.178Z,1.03
2017-10-03T05:22:28.778Z,0.90
2017-10-03T05:25:01.669Z,1.40
2017-10-03T05:27:34.009Z,0.90
2017-10-03T05:30:05.609Z,0.87
2017-10-03T05:32:37.218Z,0.83
2017-10-03T05:35:08.852Z,1.20
2017-10-03T05:37:40.781Z,0.60
2017-10-03T05:40:13.067Z,0.80
2017-10-03T05:42:46.286Z,0.77
2017-10-03T05:45:17.864Z,0.43
2017-10-03T05:47:49.588Z,0.90
2017-10-03T05:50:21.184Z,0.50
2017-10-03T05:52:53.564Z,0.50
2017-10-03T05:55:26.327Z,0.40
2017-10-03T05:57:57.980Z,0.60
2017-10-03T06:00:29.617Z,0.47
2017-10-03T06:03:01.234Z,0.70
2017-10-03T06:05:32.798Z,0.60
2017-10-03T06:08:05.708Z,0.60
2017-10-03T06:10:37.378Z,0.60
2017-10-03T06:13:09.291Z,0.77
2017-10-03T06:15:40.892Z,0.67
2017-10-03T06:18:13.891Z,0.60
2017-10-03T06:20:45.522Z,0.53
2017-10-03T06:23:17.396Z,0.77
2017-10-03T06:25:49.588Z,0.60
2017-10-03T06:28:21.968Z,0.70
2017-10-03T06:30:53.629Z,0.70
2017-10-03T06:33:25.522Z,0.63
2017-10-03T06:35:57.157Z,0.70
2017-10-03T06:38:29.123Z,1.00
2017-10-03T06:41:00.782Z,0.80
2017-10-03T06:43:32.387Z,0.57
2017-10-03T06:46:03.995Z,0.80
2017-10-03T06:48:35.835Z,0.70
2017-10-03T06:51:08.334Z,1.10
2017-10-03T06:53:40.006Z,1.10
2017-10-03T06:56:16.109Z,1.13
2017-10-03T06:58:52.640Z,1.60
2017-10-03T07:01:25.235Z,2.00
2017-10-03T07:03:57.703Z,1.93
2017-10-03T07:06:29.366Z,2.70
2017-10-03T07:09:02.053Z,2.00
2017-10-03T07:11:34.486Z,2.00
2017-10-03T07:14:06.177Z,1.70
2017-10-03T07:16:37.838Z,2.27
2017-10-03T07:19:10.341Z,2.20
2017-10-03T07:21:43.144Z,2.53
2017-10-03T07:24:15.133Z,1.90
2017-10-03T07:26:47.226Z,2.10
2017-10-03T07:29:19.690Z,2.10
2017-10-03T07:31:53.009Z,2.60
2017-10-03T07:37:00.566Z,2.30
2017-10-03T07:39:32.232Z,2.00
2017-10-03T07:42:03.937Z,2.03
2017-10-03T07:44:35.618Z,2.60
2017-10-03T07:47:09.382Z,2.90
2017-10-03T07:49:43.199Z,2.40
2017-10-03T07:52:16.838Z,2.10
2017-10-03T07:54:48.501Z,2.10
2017-10-03T07:57:20.221Z,2.33
2017-10-03T07:59:51.916Z,2.40
2017-10-03T08:02:23.581Z,2.20
2017-10-03T08:04:55.606Z,2.43
2017-10-03T08:10:03.899Z,2.40
2017-10-03T08:12:36.323Z,2.67
2017-10-03T08:15:08.018Z,2.30
2017-10-03T08:17:40.680Z,3.27
2017-10-03T08:20:12.361Z,2.57
2017-10-03T08:22:45.544Z,3.13
2017-10-03T08:25:18.362Z,3.97
2017-10-03T08:27:50.033Z,3.20
2017-10-03T08:30:21.861Z,4.20
2017-10-03T08:32:54.288Z,3.23
2017-10-03T08:35:26.461Z,3.77
2017-10-03T08:37:58.155Z,3.37
2017-10-03T08:40:30.597Z,3.33
2017-10-03T08:43:02.258Z,3.53
2017-10-03T08:45:33.949Z,4.30
2017-10-03T08:48:06.691Z,4.53
2017-10-03T08:50:38.610Z,3.40
2017-10-03T08:53:10.394Z,3.10
2017-10-03T08:55:42.094Z,4.20
2017-10-03T08:58:14.577Z,3.53
2017-10-03T09:00:46.656Z,3.30
2017-10-03T09:03:19.279Z,4.17
2017-10-03T09:05:51.040Z,3.27
2017-10-03T09:08:22.749Z,3.70
2017-10-03T09:10:54.480Z,3.90
2017-10-03T09:13:26.932Z,2.80
2017-10-03T09:15:58.660Z,4.23
2017-10-03T09:18:30.643Z,2.77
2017-10-03T09:21:02.813Z,2.80
2017-10-03T09:23:34.503Z,3.43
2017-10-03T09:26:07.170Z,2.90
2017-10-03T09:28:39.581Z,3.33
2017-10-03T09:31:12.786Z,2.80
2017-10-03T09:33:44.508Z,3.00
2017-10-03T09:36:16.978Z,3.00
2017-10-03T09:38:48.658Z,2.53
2017-10-03T09:41:20.394Z,3.43
2017-10-03T09:43:53.229Z,3.40
2017-10-03T09:46:26.397Z,2.90
2017-10-03T09:48:58.280Z,3.03
2017-10-03T09:51:29.952Z,2.90
2017-10-03T09:54:01.638Z,3.77
2017-10-03T09:56:34.109Z,3.10
2017-10-03T09:59:06.575Z,3.53
2017-10-03T10:01:39.390Z,2.90
2017-10-03T10:04:12.164Z,3.07
2017-10-03T10:06:43.823Z,3.60
2017-10-03T10:09:15.490Z,3.20
2017-10-03T10:11:49.384Z,3.40
2017-10-03T10:14:21.419Z,3.40
2017-10-03T10:16:53.075Z,4.00
2017-10-03T10:19:25.518Z,3.40
2017-10-03T10:21:57.164Z,3.97
2017-10-03T10:24:28.858Z,3.47
2017-10-03T10:27:01.063Z,3.60
2017-10-03T10:29:32.729Z,3.33
2017-10-03T10:32:04.810Z,3.20
2017-10-03T10:34:36.805Z,3.60
2017-10-03T10:37:08.475Z,3.67
2017-10-03T10:39:40.921Z,3.57
2017-10-03T10:42:12.593Z,3.40
2017-10-03T10:44:44.274Z,4.07
2017-10-03T10:47:16.750Z,3.03
2017-10-03T10:49:49.213Z,3.37
2017-10-03T10:52:21.757Z,3.70
2017-10-03T10:54:53.462Z,4.20
2017-10-03T10:57:25.376Z,3.47
2017-10-03T10:59:57.053Z,4.07
2017-10-03T11:02:29.529Z,3.50
2017-10-03T11:05:01.998Z,4.03
2017-10-03T11:07:35.790Z,3.83
2017-10-03T11:10:07.845Z,3.90
2017-10-03T11:12:39.557Z,3.93
2017-10-03T11:15:11.371Z,4.57
2017-10-03T11:17:43.044Z,5.50
2017-10-03T11:20:15.531Z,5.60
2017-10-03T11:22:58.269Z,5.00
2017-10-03T11:25:29.921Z,4.90
2017-10-03T11:28:01.704Z,4.50
2017-10-03T11:30:34.839Z,5.27
2017-10-03T11:33:07.365Z,5.40
2017-10-03T11:35:39.051Z,3.80
2017-10-03T11:38:12.035Z,4.50
2017-10-03T11:40:44.280Z,4.20
2017-10-03T11:43:15.961Z,4.37
2017-10-03T11:45:49.057Z,3.90
2017-10-03T11:48:22.573Z,4.50
2017-10-03T11:50:55.031Z,4.30
2017-10-03T11:53:27.197Z,4.23
2017-10-03T11:55:58.849Z,3.27
2017-10-03T11:58:30.690Z,3.50
2017-10-03T12:01:02.403Z,4.37
2017-10-03T12:03:34.111Z,3.67
2017-10-03T12:06:05.819Z,4.20
2017-10-03T12:08:37.533Z,3.83
2017-10-03T12:11:09.424Z,3.13
2017-10-03T12:13:41.900Z,2.83
2017-10-03T12:16:14.375Z,2.73
2017-10-03T12:18:46.833Z,3.00
2017-10-03T12:21:19.298Z,3.60
2017-10-03T12:23:51.349Z,3.10
2017-10-03T12:26:23.994Z,3.47
2017-10-03T12:28:55.701Z,3.13
2017-10-03T12:31:28.302Z,3.40
2017-10-03T12:34:00.770Z,4.07
2017-10-03T12:36:33.622Z,3.77
2017-10-03T12:39:05.494Z,3.37
2017-10-03T12:41:38.369Z,4.60
2017-10-03T12:44:10.043Z,4.00
2017-10-03T12:46:42.513Z,4.00
2017-10-03T12:49:14.181Z,3.97
2017-10-03T12:51:45.909Z,3.27
2017-10-03T12:54:19.531Z,4.27
2017-10-03T12:56:53.138Z,3.03
2017-10-03T12:59:25.690Z,3.93
2017-10-03T13:01:58.613Z,3.47
2017-10-03T13:04:31.079Z,4.20
2017-10-03T13:07:03.933Z,4.00
2017-10-03T13:09:35.637Z,4.20
2017-10-03T13:12:07.166Z,3.50
2017-10-03T13:14:41.670Z,3.97
2017-10-03T13:19:48.167Z,3.77
2017-10-03T13:22:20.651Z,3.73
2017-10-03T13:24:53.178Z,3.97
2017-10-03T13:27:24.885Z,3.93
2017-10-03T13:29:57.427Z,3.50
2017-10-03T13:32:30.806Z,3.40
2017-10-03T13:35:04.022Z,3.17
2017-10-03T13:37:36.963Z,3.93
2017-10-03T13:40:08.618Z,3.30
2017-10-03T13:42:40.342Z,4.10
2017-10-03T13:45:13.784Z,4.03
2017-10-03T13:47:45.550Z,3.03
2017-10-03T13:50:17.749Z,3.10
2017-10-03T13:52:50.691Z,4.03
2017-10-03T13:55:24.255Z,3.40
2017-10-03T13:57:56.712Z,3.27
2017-10-03T14:00:29.230Z,3.50
2017-10-03T14:03:02.983Z,3.93
2017-10-03T14:05:34.661Z,4.00
2017-10-03T14:08:07.159Z,3.10
2017-10-03T14:10:39.842Z,3.10
2017-10-03T14:13:13.025Z,3.00
2017-10-03T14:15:44.842Z,2.70
2017-10-03T14:18:17.658Z,2.97
2017-10-03T14:20:49.693Z,3.30
2017-10-03T14:23:22.243Z,3.67
2017-10-03T14:25:53.917Z,3.50
2017-10-03T14:28:25.686Z,3.87
2017-10-03T14:30:57.417Z,3.10
2017-10-03T14:33:29.071Z,3.20
2017-10-03T14:36:00.764Z,3.97
2017-10-03T14:41:09.934Z,3.80
2017-10-03T14:43:41.953Z,3.50
2017-10-03T14:46:13.877Z,3.80
2017-10-03T14:48:45.670Z,3.47
2017-10-03T14:53:53.389Z,3.20
2017-10-03T14:56:25.534Z,3.47
2017-10-03T14:59:01.159Z,4.20
2017-10-03T15:01:34.946Z,3.60
2017-10-03T15:04:07.674Z,3.50
2017-10-03T15:06:39.384Z,4.37
2017-10-03T15:09:13.295Z,3.50
2017-10-03T15:11:45.026Z,4.13
2017-10-03T15:14:17.865Z,3.57
2017-10-03T15:16:49.651Z,3.33
2017-10-03T15:19:21.335Z,3.37
2017-10-03T15:21:53.794Z,3.60
2017-10-03T15:24:25.487Z,3.63
2017-10-03T15:26:57.198Z,3.83
2017-10-03T15:29:28.953Z,4.03
2017-10-03T15:32:01.993Z,4.20
2017-10-03T15:34:33.674Z,3.70
2017-10-03T15:37:05.342Z,5.20
2017-10-03T15:39:37.028Z,4.20
2017-10-03T15:42:11.254Z,3.37
2017-10-03T15:44:43.727Z,3.80
2017-10-03T15:47:16.503Z,4.07
2017-10-03T15:49:48.985Z,4.20
2017-10-03T15:52:21.502Z,3.97
2017-10-03T15:54:53.190Z,4.60
2017-10-03T15:57:24.862Z,3.53
2017-10-03T15:59:56.714Z,4.00
2017-10-03T16:02:35.990Z,3.53
2017-10-03T16:05:07.683Z,5.00
2017-10-03T16:07:39.398Z,4.13
2017-10-03T16:10:10.928Z,3.93
2017-10-03T16:12:43.285Z,3.67
2017-10-03T16:15:14.245Z,4.30
2017-10-03T16:17:46.004Z,4.07
2017-10-03T16:20:17.752Z,3.73
2017-10-03T16:22:49.497Z,4.40
2017-10-03T16:25:21.554Z,4.37
2017-10-03T16:27:52.557Z,4.80
2017-10-03T16:30:24.027Z,4.20
2017-10-03T16:32:55.008Z,4.27
2017-10-03T16:35:26.758Z,4.70
2017-10-03T16:37:58.489Z,5.03
2017-10-03T16:40:29.457Z,4.80
2017-10-03T16:43:01.541Z,5.10
2017-10-03T16:45:32.538Z,4.30
2017-10-03T16:48:03.538Z,4.37
2017-10-03T16:50:34.516Z,4.60
2017-10-03T16:53:05.480Z,4.70
2017-10-03T16:55:37.760Z,4.87
2017-10-03T16:58:09.532Z,4.33
2017-10-03T17:00:40.957Z,4.50
2017-10-03T17:03:13.025Z,5.20
2017-10-03T17:05:44.768Z,4.40
2017-10-03T17:08:15.756Z,5.60
2017-10-03T17:10:46.749Z,4.17
2017-10-03T17:13:18.825Z,4.73
2017-10-03T17:15:50.625Z,4.30
2017-10-03T17:18:21.623Z,5.20
2017-10-03T17:20:52.908Z,5.40
2017-10-03T17:23:23.444Z,6.77
2017-10-03T17:25:54.379Z,4.40
2017-10-03T17:28:26.238Z,5.27
2017-10-03T17:30:57.073Z,4.40
2017-10-03T17:33:27.569Z,4.77
2017-10-03T17:35:58.888Z,4.17
2017-10-03T17:38:29.409Z,4.83
2017-10-03T17:40:59.893Z,5.00
2017-10-03T17:43:30.731Z,4.50
2017-10-03T17:46:01.243Z,4.40
2017-10-03T17:48:32.509Z,4.97
2017-10-03T17:51:03.024Z,5.17
2017-10-03T17:53:33.529Z,4.40
2017-10-03T17:56:04.545Z,4.63
2017-10-03T17:58:35.079Z,4.07
2017-10-03T18:01:06.084Z,4.97
2017-10-03T18:03:36.598Z,4.00
2017-10-03T18:06:07.109Z,5.30
2017-10-03T18:08:38.360Z,3.80
2017-10-03T18:11:09.644Z,5.27
2017-10-03T18:13:40.873Z,4.47
2017-10-03T18:16:11.384Z,4.30
2017-10-03T18:18:41.880Z,4.93
2017-10-03T18:21:12.401Z,4.67
2017-10-03T18:23:42.936Z,4.40
2017-10-03T18:26:13.563Z,5.27
2017-10-03T18:28:44.077Z,4.97
2017-10-03T18:31:15.902Z,5.17
2017-10-03T18:33:46.413Z,5.43
2017-10-03T18:36:17.685Z,4.60
2017-10-03T18:38:48.188Z,6.10
2017-10-03T18:41:19.437Z,5.47
2017-10-03T18:43:50.144Z,5.57
2017-10-03T18:46:21.425Z,6.17
2017-10-03T18:48:51.929Z,5.27
2017-10-03T18:51:23.208Z,5.83
2017-10-03T18:53:54.636Z,5.43
2017-10-03T18:56:26.425Z,5.37
2017-10-03T18:58:56.943Z,4.93
2017-10-03T19:01:27.652Z,5.07
2017-10-03T19:03:58.929Z,5.70
2017-10-03T19:06:29.428Z,5.37
2017-10-03T19:09:00.720Z,6.33
2017-10-03T19:11:31.517Z,5.77
2017-10-03T19:14:02.412Z,6.27
2017-10-03T19:16:32.927Z,6.37
2017-10-03T19:19:03.448Z,5.60
2017-10-03T19:21:33.942Z,6.50
2017-10-03T19:24:04.446Z,7.40
2017-10-03T19:26:36.085Z,7.47
2017-10-03T19:29:06.590Z,7.33
2017-10-03T19:31:37.201Z,8.40
2017-10-03T19:34:07.709Z,8.37
2017-10-03T19:36:38.980Z,8.13
2017-10-03T19:39:09.492Z,7.70
2017-10-03T19:41:40.006Z,9.00
2017-10-03T19:44:12.404Z,8.70
2017-10-03T19:46:42.912Z,9.00
2017-10-03T19:49:14.205Z,10.10
2017-10-03T19:51:44.716Z,9.10
2017-10-03T19:54:15.232Z,8.97
2017-10-03T19:56:47.005Z,8.70
2017-10-03T19:59:17.513Z,9.80
2017-10-03T20:01:51.041Z,10.20
2017-10-03T20:04:21.560Z,10.17
2017-10-03T20:06:52.055Z,9.40
2017-10-03T20:09:23.336Z,9.97
2017-10-03T20:11:53.845Z,8.97
2017-10-03T20:14:24.825Z,11.13
2017-10-03T20:16:55.366Z,8.87
2017-10-03T20:19:25.909Z,9.07
2017-10-03T20:21:56.412Z,8.30
2017-10-03T20:24:26.908Z,8.97
2017-10-03T20:26:57.404Z,9.13
2017-10-03T20:29:28.668Z,9.27
2017-10-03T20:32:00.275Z,11.73
2017-10-03T20:34:30.804Z,10.50
2017-10-03T20:37:01.298Z,10.50
2017-10-03T20:39:31.792Z,10.00
2017-10-03T20:42:03.060Z,11.37
2017-10-03T20:44:34.121Z,10.70
2017-10-03T20:47:04.628Z,12.53
2017-10-03T20:49:36.043Z,12.10
2017-10-03T20:52:06.569Z,12.73
2017-10-03T20:54:37.081Z,11.33
2017-10-03T20:57:07.611Z,11.80
2017-10-03T20:59:38.116Z,10.97
2017-10-03T21:02:08.984Z,10.47
2017-10-03T21:04:40.257Z,10.17
2017-10-03T21:07:10.808Z,9.40
2017-10-03T21:09:41.329Z,10.00
2017-10-03T21:12:11.842Z,8.27
2017-10-03T21:14:43.293Z,7.87
2017-10-03T21:17:14.566Z,6.13
2017-10-03T21:19:45.505Z,7.37
2017-10-03T21:22:18.188Z,7.27
2017-10-03T21:24:48.721Z,6.70
2017-10-03T21:27:19.233Z,6.90
2017-10-03T21:29:49.732Z,7.03
2017-10-03T21:32:21.484Z,6.30
2017-10-03T21:34:53.052Z,6.10
2017-10-03T21:37:24.331Z,7.10
2017-10-03T21:39:54.857Z,6.57
2017-10-03T21:42:36.131Z,6.90
2017-10-03T21:45:07.276Z,6.70
2017-10-03T21:47:37.828Z,6.43
2017-10-03T21:50:08.336Z,6.47
2017-10-03T21:52:38.836Z,6.50
2017-10-03T21:55:10.113Z,7.20
2017-10-03T21:57:40.638Z,6.80
2017-10-03T22:00:11.136Z,7.00
2017-10-03T22:02:42.580Z,6.47
2017-10-03T22:05:13.890Z,6.20
2017-10-03T22:07:44.424Z,6.50
2017-10-03T22:10:14.933Z,6.80
2017-10-03T22:12:45.445Z,6.70
2017-10-03T22:15:16.349Z,6.93
2017-10-03T22:17:46.871Z,5.90
2017-10-03T22:20:17.401Z,6.70
2017-10-03T22:22:47.938Z,6.50
2017-10-03T22:25:20.144Z,6.97
2017-10-03T22:27:50.677Z,5.83
2017-10-03T22:30:21.194Z,7.70
2017-10-03T22:33:00.549Z,7.63
2017-10-03T22:35:31.069Z,8.20
2017-10-03T22:38:01.592Z,7.60
2017-10-03T22:40:32.095Z,7.30
2017-10-03T22:43:03.356Z,8.10
2017-10-03T22:45:33.951Z,9.53
2017-10-03T22:48:04.458Z,8.47
2017-10-03T22:50:34.959Z,8.60
2017-10-03T22:53:05.528Z,8.47
2017-10-03T22:55:36.063Z,10.37
2017-10-03T22:58:06.573Z,10.07
2017-10-03T23:00:37.104Z,9.63
2017-10-03T23:03:07.633Z,11.27
2017-10-03T23:05:38.137Z,9.93
2017-10-03T23:08:08.634Z,9.83
2017-10-03T23:10:39.908Z,9.40
2017-10-03T23:13:10.416Z,9.50
2017-10-03T23:15:41.577Z,9.40
2017-10-03T23:18:12.080Z,8.60
2017-10-03T23:20:43.625Z,9.10
2017-10-03T23:23:14.173Z,7.37
2017-10-03T23:25:44.690Z,8.80
2017-10-03T23:28:16.858Z,8.90
2017-10-03T23:30:48.189Z,8.50
2017-10-03T23:33:19.278Z,7.53
2017-10-03T23:35:49.791Z,7.07
2017-10-03T23:38:20.308Z,8.27
2017-10-03T23:40:51.584Z,8.83
2017-10-03T23:43:22.082Z,7.60
2017-10-03T23:45:53.708Z,8.40
2017-10-03T23:48:24.240Z,8.57
2017-10-03T23:50:55.085Z,7.87
2017-10-03T23:53:26.349Z,8.57
2017-10-03T23:55:57.630Z,8.10
2017-10-03T23:58:28.136Z,8.50
